Terminal Aerodrome Forecast
Issued by NWS

Home | Current Version | Previous Version | Graphics & Text | Print | Product List | Glossary On
Versions: 1 2 3 4 5 6 7 8 9 10 11 12 13 14 15 16 17 18 19 20 21
000
FTUS43 KBIS 190500
TAFJMS
TAF
KJMS 190532Z 1906/2006 17008KT P6SM OVC006
      TEMPO 1909/1913 3SM BR OVC003
     FM191300 17006KT P6SM FEW003 SCT100
      TEMPO 1913/1915 2SM BR SCT003
     FM191500 18006KT P6SM SCT100=

USA.gov is the U.S. government's official web portal to all federal, state and local government web resources and services.